createdAt,value
2023-02-17T00:02:17.398Z,53.50
2023-02-17T00:04:43.958Z,53.60
2023-02-17T00:07:10.568Z,53.60
2023-02-17T00:09:37.467Z,53.60
2023-02-17T00:12:04.211Z,53.80
2023-02-17T00:14:30.834Z,53.70
2023-02-17T00:16:57.549Z,53.80
2023-02-17T00:19:25.276Z,53.90
2023-02-17T00:21:55.625Z,54.00
2023-02-17T00:24:23.162Z,53.80
2023-02-17T00:26:49.958Z,53.70
2023-02-17T00:29:16.732Z,53.70
2023-02-17T00:31:44.080Z,53.60
2023-02-17T00:34:10.969Z,53.50
2023-02-17T00:36:37.818Z,53.70
2023-02-17T00:39:04.990Z,53.50
2023-02-17T00:41:31.590Z,53.50
2023-02-17T00:43:58.595Z,54.00
2023-02-17T00:46:26.120Z,53.60
2023-02-17T00:48:53.402Z,53.80
2023-02-17T00:51:19.979Z,53.70
2023-02-17T00:53:46.592Z,53.60
2023-02-17T00:56:13.409Z,53.70
2023-02-17T00:58:41.454Z,53.90
2023-02-17T01:01:08.712Z,54.10
2023-02-17T01:03:35.259Z,53.80
2023-02-17T01:06:05.610Z,53.80
2023-02-17T01:08:32.294Z,54.10
2023-02-17T01:10:58.868Z,54.00
2023-02-17T01:13:25.617Z,53.90
2023-02-17T01:15:53.096Z,53.80
2023-02-17T01:18:21.154Z,53.90
2023-02-17T01:20:47.755Z,53.90
2023-02-17T01:23:14.562Z,54.60
2023-02-17T01:25:42.041Z,54.00
2023-02-17T01:28:09.031Z,54.10
2023-02-17T01:30:35.779Z,54.30
2023-02-17T01:33:02.433Z,54.00
2023-02-17T01:35:29.046Z,54.00
2023-02-17T01:37:55.695Z,54.00
2023-02-17T01:40:22.330Z,54.00
2023-02-17T01:42:48.966Z,53.90
2023-02-17T01:45:31.576Z,54.10
2023-02-17T01:48:24.459Z,54.20
2023-02-17T01:50:53.961Z,54.40
2023-02-17T01:53:22.858Z,54.40
2023-02-17T01:55:49.761Z,54.20
2023-02-17T01:58:17.333Z,54.30
2023-02-17T02:00:43.900Z,54.30
2023-02-17T02:03:11.711Z,54.70
2023-02-17T02:05:39.900Z,54.30
2023-02-17T02:08:06.991Z,54.50
2023-02-17T02:10:33.728Z,54.60
2023-02-17T02:13:00.306Z,54.80
2023-02-17T02:15:29.169Z,54.80
2023-02-17T02:18:14.700Z,54.80
2023-02-17T02:20:41.274Z,54.80
2023-02-17T02:23:34.296Z,54.50
2023-02-17T02:26:00.853Z,54.30
2023-02-17T02:28:42.736Z,54.30
2023-02-17T02:31:21.348Z,54.30
2023-02-17T02:33:51.407Z,54.40
2023-02-17T02:36:20.494Z,54.40
2023-02-17T02:38:49.783Z,54.40
2023-02-17T02:41:21.136Z,54.40
2023-02-17T02:43:47.994Z,54.30
2023-02-17T02:46:14.670Z,54.60
2023-02-17T02:48:41.507Z,54.50
2023-02-17T02:51:14.123Z,54.30
2023-02-17T02:53:46.171Z,54.60
2023-02-17T02:56:18.824Z,54.80
2023-02-17T02:59:04.256Z,54.70
2023-02-17T03:01:41.901Z,54.60
2023-02-17T03:04:14.800Z,54.70
2023-02-17T03:06:48.063Z,54.60
2023-02-17T03:09:17.151Z,54.70
2023-02-17T03:11:44.707Z,54.60
2023-02-17T03:14:12.850Z,54.80
2023-02-17T03:16:40.372Z,54.90
2023-02-17T03:19:07.675Z,54.70
2023-02-17T03:21:46.116Z,54.70
2023-02-17T03:24:12.794Z,54.50
2023-02-17T03:26:39.356Z,54.90
2023-02-17T03:29:06.004Z,54.90
2023-02-17T03:31:32.770Z,54.80
2023-02-17T03:33:59.555Z,54.70
2023-02-17T03:36:26.173Z,55.10
2023-02-17T03:38:52.738Z,55.00
2023-02-17T03:41:19.336Z,54.80
2023-02-17T03:43:45.937Z,55.00
2023-02-17T03:46:13.663Z,54.90
2023-02-17T03:48:40.618Z,54.90
2023-02-17T03:51:11.336Z,55.00
2023-02-17T03:53:38.744Z,54.90
2023-02-17T03:56:05.754Z,55.10
2023-02-17T03:58:32.594Z,55.10
2023-02-17T04:00:59.170Z,55.60
2023-02-17T04:03:25.808Z,55.10
2023-02-17T04:05:52.469Z,55.10
2023-02-17T04:08:19.058Z,55.50
2023-02-17T04:10:45.687Z,55.20
2023-02-17T04:13:12.331Z,55.00
2023-02-17T04:15:38.962Z,55.20
2023-02-17T04:18:05.598Z,55.00
2023-02-17T04:20:32.176Z,54.90
2023-02-17T04:22:58.714Z,54.80
2023-02-17T04:25:25.272Z,54.90
2023-02-17T04:27:51.887Z,54.70
2023-02-17T04:30:18.461Z,54.90
2023-02-17T04:32:45.075Z,55.10
2023-02-17T04:35:11.681Z,55.10
2023-02-17T04:37:38.291Z,55.00
2023-02-17T04:40:10.220Z,55.10
2023-02-17T04:42:37.170Z,55.00
2023-02-17T04:45:04.139Z,55.10
2023-02-17T04:47:30.720Z,55.10
2023-02-17T04:49:57.314Z,55.30
2023-02-17T04:52:23.886Z,55.20
2023-02-17T04:54:50.462Z,55.30
2023-02-17T04:57:17.470Z,55.20
2023-02-17T04:59:44.076Z,55.30
2023-02-17T05:02:10.672Z,55.30
2023-02-17T05:04:37.432Z,55.30
2023-02-17T05:07:04.176Z,55.20
2023-02-17T05:09:30.760Z,55.30
2023-02-17T05:11:57.442Z,55.50
2023-02-17T05:14:24.045Z,55.60
2023-02-17T05:16:50.643Z,55.50
2023-02-17T05:19:17.275Z,55.60
2023-02-17T05:21:43.939Z,55.60
2023-02-17T05:24:10.556Z,55.40
2023-02-17T05:26:37.141Z,55.30
2023-02-17T05:29:03.754Z,55.20
2023-02-17T05:31:30.620Z,55.40
2023-02-17T05:33:57.210Z,55.40
2023-02-17T05:36:23.831Z,55.50
2023-02-17T05:38:51.187Z,55.30
2023-02-17T05:41:18.511Z,56.00
2023-02-17T05:43:45.503Z,55.60
2023-02-17T05:46:12.129Z,55.60
2023-02-17T05:48:38.737Z,55.40
2023-02-17T05:51:05.558Z,55.30
2023-02-17T05:53:32.119Z,55.50
2023-02-17T05:55:58.747Z,55.70
2023-02-17T05:58:25.424Z,55.40
2023-02-17T06:00:52.027Z,55.40
2023-02-17T06:03:18.664Z,55.40
2023-02-17T06:05:45.810Z,55.40
2023-02-17T06:08:12.416Z,55.20
2023-02-17T06:10:39.067Z,55.40
2023-02-17T06:13:05.774Z,55.20
2023-02-17T06:15:32.403Z,55.30
2023-02-17T06:17:58.999Z,55.20
2023-02-17T06:20:26.313Z,55.60
2023-02-17T06:22:52.897Z,55.40
2023-02-17T06:25:19.482Z,55.60
2023-02-17T06:27:46.198Z,55.70
2023-02-17T06:30:13.654Z,55.70
2023-02-17T06:32:40.230Z,55.40
2023-02-17T06:35:07.014Z,55.30
2023-02-17T06:37:33.604Z,55.50
2023-02-17T06:40:00.164Z,55.80
2023-02-17T06:42:26.857Z,55.70
2023-02-17T06:44:53.494Z,55.50
2023-02-17T06:47:20.089Z,55.70
2023-02-17T06:49:46.654Z,55.60
2023-02-17T06:52:13.324Z,55.50
2023-02-17T06:54:39.881Z,55.70
2023-02-17T06:57:06.481Z,55.70
2023-02-17T06:59:33.686Z,55.90
2023-02-17T07:02:02.296Z,55.80
2023-02-17T07:04:29.298Z,55.90
2023-02-17T07:06:55.967Z,55.60
2023-02-17T07:09:22.558Z,55.90
2023-02-17T07:11:51.062Z,55.60
2023-02-17T07:14:17.846Z,55.60
2023-02-17T07:16:44.545Z,55.70
2023-02-17T07:19:11.161Z,55.70
2023-02-17T07:21:37.760Z,55.70
2023-02-17T07:24:04.417Z,55.80
2023-02-17T07:26:31.096Z,55.50
2023-02-17T07:28:57.743Z,55.50
2023-02-17T07:31:24.428Z,55.70
2023-02-17T07:33:51.088Z,55.50
2023-02-17T07:36:17.691Z,55.40
2023-02-17T07:38:44.397Z,55.10
2023-02-17T07:41:12.678Z,55.40
2023-02-17T07:43:39.223Z,55.30
2023-02-17T07:46:07.054Z,55.10
2023-02-17T07:48:33.849Z,55.00
2023-02-17T07:51:07.579Z,55.20
2023-02-17T07:53:34.652Z,54.90
2023-02-17T07:56:08.968Z,55.20
2023-02-17T07:58:36.847Z,55.40
2023-02-17T08:01:09.562Z,55.30
2023-02-17T08:03:36.214Z,55.40
2023-02-17T08:06:02.969Z,55.40
2023-02-17T08:08:47.963Z,55.50
2023-02-17T08:11:34.202Z,55.60
2023-02-17T08:14:00.921Z,55.60
2023-02-17T08:16:27.575Z,55.70
2023-02-17T08:18:55.496Z,55.70
2023-02-17T08:21:25.796Z,55.80
2023-02-17T08:23:52.818Z,55.90
2023-02-17T08:26:19.476Z,55.80
2023-02-17T08:28:46.050Z,56.10
2023-02-17T08:31:30.022Z,56.00
2023-02-17T08:33:56.714Z,56.50
2023-02-17T08:36:24.689Z,56.80
2023-02-17T08:38:51.941Z,56.60
2023-02-17T08:41:31.689Z,56.90
2023-02-17T08:43:59.154Z,56.60
2023-02-17T08:46:26.358Z,56.40
2023-02-17T08:48:53.009Z,56.20
2023-02-17T08:51:25.791Z,56.10
2023-02-17T08:53:54.367Z,56.20
2023-02-17T08:56:21.610Z,56.30
2023-02-17T08:58:48.277Z,56.30
2023-02-17T09:01:18.967Z,55.90
2023-02-17T09:03:46.132Z,55.90
2023-02-17T09:06:13.317Z,55.90
2023-02-17T09:08:40.917Z,55.80
2023-02-17T09:11:09.642Z,55.80
2023-02-17T09:13:36.680Z,55.50
2023-02-17T09:16:03.397Z,55.50
2023-02-17T09:18:30.368Z,55.40
2023-02-17T09:20:58.558Z,55.60
2023-02-17T09:23:25.210Z,56.00
2023-02-17T09:26:01.037Z,56.00
2023-02-17T09:28:27.649Z,55.80
2023-02-17T09:30:54.412Z,55.80
2023-02-17T09:33:21.184Z,55.90
2023-02-17T09:35:49.193Z,56.00
2023-02-17T09:38:16.349Z,56.00
2023-02-17T09:40:47.202Z,56.10
2023-02-17T09:43:15.030Z,56.30
2023-02-17T09:45:42.462Z,56.20
2023-02-17T09:48:11.598Z,56.20
2023-02-17T09:50:41.289Z,56.40
2023-02-17T09:53:14.732Z,56.40
2023-02-17T09:55:43.842Z,56.40
2023-02-17T09:58:14.290Z,56.60
2023-02-17T10:00:45.226Z,56.70
2023-02-17T10:03:41.468Z,56.60
2023-02-17T10:06:34.218Z,56.70
2023-02-17T10:09:24.430Z,56.70
2023-02-17T10:12:01.140Z,57.30
2023-02-17T10:14:34.178Z,56.80
2023-02-17T10:17:07.340Z,57.10
2023-02-17T10:19:41.102Z,57.10
2023-02-17T10:22:34.243Z,56.80
2023-02-17T10:25:01.542Z,56.90
2023-02-17T10:27:37.354Z,57.20
2023-02-17T10:30:15.088Z,57.10
2023-02-17T10:32:51.097Z,57.20
2023-02-17T10:35:21.239Z,57.10
2023-02-17T10:37:49.158Z,57.30
2023-02-17T10:40:23.706Z,57.30
2023-02-17T10:42:51.734Z,57.50
2023-02-17T10:45:25.996Z,57.50
2023-02-17T10:47:58.063Z,57.50
2023-02-17T10:50:25.023Z,57.40
2023-02-17T10:52:51.835Z,57.70
2023-02-17T10:55:36.638Z,59.50
2023-02-17T10:58:06.764Z,62.20
2023-02-17T11:00:33.394Z,62.80
2023-02-17T11:03:00.017Z,61.70
2023-02-17T11:05:31.090Z,65.20
2023-02-17T11:08:00.451Z,66.50
2023-02-17T11:10:29.245Z,66.90
2023-02-17T11:12:58.041Z,64.90
2023-02-17T11:15:29.904Z,64.40
2023-02-17T11:17:56.596Z,63.90
2023-02-17T11:20:23.294Z,64.70
2023-02-17T11:23:01.239Z,65.10
2023-02-17T11:25:29.079Z,64.80
2023-02-17T11:27:56.929Z,65.00
2023-02-17T11:30:23.719Z,65.20
2023-02-17T11:32:50.565Z,64.20
2023-02-17T11:35:22.569Z,65.00
2023-02-17T11:37:49.187Z,63.80
2023-02-17T11:40:29.395Z,64.70
2023-02-17T11:42:57.365Z,64.50
2023-02-17T11:45:24.792Z,65.20
2023-02-17T11:48:09.967Z,64.30
2023-02-17T11:50:41.992Z,64.00
2023-02-17T11:53:17.759Z,65.40
2023-02-17T11:55:50.435Z,64.80
2023-02-17T11:58:35.455Z,64.50
2023-02-17T12:01:02.002Z,64.40
2023-02-17T12:03:37.890Z,65.60
2023-02-17T12:06:04.921Z,66.10
2023-02-17T12:08:42.151Z,65.30
2023-02-17T12:11:25.786Z,65.50
2023-02-17T12:14:11.387Z,65.90
2023-02-17T12:16:50.566Z,65.20
2023-02-17T12:19:23.266Z,65.90
2023-02-17T12:21:49.847Z,66.30
2023-02-17T12:24:25.624Z,63.80
2023-02-17T12:27:04.300Z,65.70
2023-02-17T12:29:30.910Z,65.70
2023-02-17T12:32:00.770Z,64.20
2023-02-17T12:34:30.349Z,65.30
2023-02-17T12:36:58.097Z,65.20
2023-02-17T12:39:28.714Z,65.90
2023-02-17T12:42:01.670Z,65.40
2023-02-17T12:44:30.165Z,66.00
2023-02-17T12:46:58.483Z,66.80
2023-02-17T12:49:37.695Z,67.30
2023-02-17T12:52:06.425Z,68.60
2023-02-17T12:54:36.572Z,67.40
2023-02-17T12:57:06.136Z,68.20
2023-02-17T12:59:34.372Z,68.40
2023-02-17T13:02:10.217Z,68.10
2023-02-17T13:04:36.907Z,68.40
2023-02-17T13:07:06.532Z,67.70
2023-02-17T13:09:35.416Z,67.90
2023-02-17T13:12:17.236Z,67.60
2023-02-17T13:14:46.005Z,68.00
2023-02-17T13:17:21.710Z,68.80
2023-02-17T13:19:48.288Z,68.50
2023-02-17T13:22:22.185Z,68.20
2023-02-17T13:24:53.054Z,68.60
2023-02-17T13:27:19.595Z,67.40
2023-02-17T13:29:46.252Z,66.60
2023-02-17T13:32:13.061Z,67.20
2023-02-17T13:34:42.875Z,68.60
2023-02-17T13:37:18.064Z,67.30
2023-02-17T13:39:45.140Z,67.20
2023-02-17T13:42:31.959Z,66.70
2023-02-17T13:44:58.602Z,67.40
2023-02-17T13:47:37.707Z,67.10
2023-02-17T13:50:05.093Z,66.40
2023-02-17T13:52:32.247Z,66.90
2023-02-17T13:55:00.233Z,66.10
2023-02-17T13:57:31.312Z,67.10
2023-02-17T14:00:19.891Z,66.10
2023-02-17T14:03:02.381Z,65.70
2023-02-17T14:05:29.098Z,65.80
2023-02-17T14:07:58.924Z,66.30
2023-02-17T14:10:26.725Z,66.40
2023-02-17T14:12:54.571Z,65.40
2023-02-17T14:15:29.402Z,65.20
2023-02-17T14:17:56.346Z,66.80
2023-02-17T14:20:27.173Z,65.80
2023-02-17T14:23:04.962Z,65.50
2023-02-17T14:25:33.114Z,65.20
2023-02-17T14:27:59.751Z,64.50
2023-02-17T14:30:37.171Z,64.60
2023-02-17T14:33:24.139Z,65.20
2023-02-17T14:35:50.724Z,65.60
2023-02-17T14:38:25.048Z,66.60
2023-02-17T14:40:53.328Z,68.50
2023-02-17T14:43:19.931Z,67.80
2023-02-17T14:45:46.494Z,65.60
2023-02-17T14:48:13.102Z,65.90
2023-02-17T14:50:42.787Z,66.10
2023-02-17T14:53:12.194Z,65.70
2023-02-17T14:55:43.404Z,64.50
2023-02-17T14:58:17.937Z,67.00
2023-02-17T15:00:44.577Z,66.30
2023-02-17T15:03:11.186Z,67.00
2023-02-17T15:05:38.482Z,67.10
2023-02-17T15:08:07.305Z,67.20
2023-02-17T15:10:36.089Z,65.00
2023-02-17T15:13:02.756Z,66.30
2023-02-17T15:15:29.460Z,65.60
2023-02-17T15:17:56.144Z,65.40
2023-02-17T15:20:22.703Z,65.30
2023-02-17T15:22:52.779Z,66.50
2023-02-17T15:25:24.039Z,66.10
2023-02-17T15:27:50.833Z,63.80
2023-02-17T15:30:20.729Z,64.70
2023-02-17T15:32:47.705Z,63.90
2023-02-17T15:35:24.620Z,63.40
2023-02-17T15:37:51.792Z,64.70
2023-02-17T15:40:22.676Z,64.10
2023-02-17T15:42:50.930Z,64.70
2023-02-17T15:45:18.996Z,65.10
2023-02-17T15:47:49.721Z,64.50
2023-02-17T15:50:20.694Z,64.40
2023-02-17T15:52:47.883Z,65.60
2023-02-17T15:55:14.501Z,67.60
2023-02-17T15:57:44.355Z,66.20
2023-02-17T16:00:17.147Z,66.90
2023-02-17T16:02:43.833Z,65.70
2023-02-17T16:05:15.341Z,65.40
2023-02-17T16:07:42.020Z,66.10
2023-02-17T16:10:10.334Z,66.20
2023-02-17T16:12:37.219Z,67.70
2023-02-17T16:15:04.191Z,68.30
2023-02-17T16:17:30.841Z,68.60
2023-02-17T16:19:57.604Z,69.60
2023-02-17T16:22:24.308Z,68.50
2023-02-17T16:24:51.065Z,68.30
2023-02-17T16:27:17.729Z,67.50
2023-02-17T16:29:44.449Z,68.00
2023-02-17T16:32:14.647Z,66.70
2023-02-17T16:34:42.508Z,67.70
2023-02-17T16:37:15.056Z,66.90
2023-02-17T16:39:42.019Z,67.00
2023-02-17T16:42:12.404Z,67.50
2023-02-17T16:44:39.098Z,66.60
2023-02-17T16:47:06.082Z,67.60
2023-02-17T16:49:35.987Z,67.60
2023-02-17T16:52:04.485Z,66.90
2023-02-17T16:54:31.763Z,65.70
2023-02-17T16:56:59.700Z,64.70
2023-02-17T16:59:26.674Z,65.60
2023-02-17T17:01:53.742Z,66.10
2023-02-17T17:04:20.944Z,64.50
2023-02-17T17:06:49.522Z,65.50
2023-02-17T17:09:17.384Z,66.30
2023-02-17T17:11:44.384Z,64.20
2023-02-17T17:14:11.288Z,64.20
2023-02-17T17:16:39.556Z,64.10
2023-02-17T17:19:06.859Z,64.30
2023-02-17T17:21:33.821Z,67.10
2023-02-17T17:24:00.388Z,64.40
2023-02-17T17:26:32.775Z,64.40
2023-02-17T17:28:59.744Z,63.90
2023-02-17T17:31:26.938Z,63.90
2023-02-17T17:33:54.814Z,64.10
2023-02-17T17:36:24.654Z,65.10
2023-02-17T17:38:51.930Z,66.20
2023-02-17T17:41:18.984Z,67.30
2023-02-17T17:43:46.872Z,66.50
2023-02-17T17:46:18.168Z,66.70
2023-02-17T17:48:44.926Z,66.90
2023-02-17T17:51:15.650Z,65.50
2023-02-17T17:53:42.374Z,63.90
2023-02-17T17:56:16.736Z,64.20
2023-02-17T17:58:43.430Z,63.90
2023-02-17T18:01:11.362Z,63.20
2023-02-17T18:03:38.925Z,63.70
2023-02-17T18:06:07.014Z,63.70
2023-02-17T18:08:34.337Z,63.80
2023-02-17T18:11:00.983Z,63.30
2023-02-17T18:13:27.863Z,65.10
2023-02-17T18:15:54.782Z,65.70
2023-02-17T18:18:21.701Z,65.10
2023-02-17T18:20:48.356Z,64.70
2023-02-17T18:23:15.012Z,64.00
2023-02-17T18:25:41.939Z,64.30
2023-02-17T18:28:08.597Z,63.90
2023-02-17T18:30:35.270Z,64.10
2023-02-17T18:33:02.147Z,64.00
2023-02-17T18:35:40.649Z,67.70
2023-02-17T18:38:07.284Z,63.50
2023-02-17T18:40:41.211Z,65.30
2023-02-17T18:43:08.253Z,64.50
2023-02-17T18:45:35.161Z,63.50
2023-02-17T18:48:01.802Z,63.60
2023-02-17T18:50:32.963Z,63.80
2023-02-17T18:53:08.161Z,63.50
2023-02-17T18:55:37.155Z,63.10
2023-02-17T18:58:03.879Z,63.10
2023-02-17T19:00:30.586Z,65.40
2023-02-17T19:02:57.179Z,65.40
2023-02-17T19:05:23.847Z,64.60
2023-02-17T19:07:50.500Z,64.60
2023-02-17T19:10:17.213Z,64.00
2023-02-17T19:12:43.861Z,64.20
2023-02-17T19:15:10.842Z,64.80
2023-02-17T19:17:37.483Z,64.30
2023-02-17T19:20:04.259Z,64.00
2023-02-17T19:22:30.863Z,63.90
2023-02-17T19:24:57.483Z,64.00
2023-02-17T19:27:24.074Z,63.80
2023-02-17T19:29:50.636Z,63.80
2023-02-17T19:32:17.296Z,63.60
2023-02-17T19:34:43.928Z,63.90
2023-02-17T19:37:10.780Z,64.30
2023-02-17T19:39:37.580Z,65.00
2023-02-17T19:42:04.317Z,66.00
2023-02-17T19:44:31.477Z,67.00
2023-02-17T19:46:58.309Z,69.20
2023-02-17T19:49:25.006Z,69.60
2023-02-17T19:51:53.348Z,68.00
2023-02-17T19:54:19.973Z,66.60
2023-02-17T19:56:48.894Z,67.20
2023-02-17T19:59:15.657Z,66.10
2023-02-17T20:01:43.344Z,65.40
2023-02-17T20:04:10.507Z,64.80
2023-02-17T20:06:41.673Z,64.70
2023-02-17T20:09:10.229Z,65.10
2023-02-17T20:11:36.982Z,64.60
2023-02-17T20:14:03.740Z,65.30
2023-02-17T20:16:30.558Z,65.40
2023-02-17T20:18:59.192Z,66.60
2023-02-17T20:21:26.762Z,67.00
2023-02-17T20:23:53.702Z,67.60
2023-02-17T20:26:22.156Z,66.90
2023-02-17T20:28:49.257Z,66.80
2023-02-17T20:31:16.000Z,66.10
2023-02-17T20:33:42.617Z,65.70
2023-02-17T20:36:09.521Z,65.10
2023-02-17T20:38:37.568Z,64.90
2023-02-17T20:41:05.250Z,64.90
2023-02-17T20:43:31.915Z,63.30
2023-02-17T20:45:58.546Z,63.50
2023-02-17T20:48:27.583Z,63.60
2023-02-17T20:50:55.318Z,63.80
2023-02-17T20:53:22.052Z,63.60
2023-02-17T20:55:48.634Z,63.10
2023-02-17T20:58:15.494Z,63.30
2023-02-17T21:00:42.125Z,63.60
2023-02-17T21:03:08.763Z,63.10
2023-02-17T21:05:36.050Z,62.80
2023-02-17T21:08:02.752Z,62.70
2023-02-17T21:10:30.259Z,64.30
2023-02-17T21:12:56.889Z,63.20
2023-02-17T21:15:23.707Z,63.10
2023-02-17T21:17:50.388Z,63.30
2023-02-17T21:20:18.153Z,62.30
2023-02-17T21:22:45.157Z,62.10
2023-02-17T21:25:11.781Z,61.70
2023-02-17T21:27:38.527Z,62.40
2023-02-17T21:30:07.007Z,62.10
2023-02-17T21:32:33.631Z,62.30
2023-02-17T21:35:00.236Z,62.30
2023-02-17T21:37:27.010Z,61.80
2023-02-17T21:39:53.619Z,61.50
2023-02-17T21:42:40.162Z,62.00
2023-02-17T21:45:06.845Z,62.90
2023-02-17T21:47:33.436Z,61.80
2023-02-17T21:50:00.028Z,62.10
2023-02-17T21:52:26.603Z,61.30
2023-02-17T21:54:53.210Z,61.60
2023-02-17T21:57:19.823Z,62.30
2023-02-17T21:59:46.470Z,61.50
2023-02-17T22:02:13.357Z,61.80
2023-02-17T22:04:39.936Z,61.80
2023-02-17T22:07:06.471Z,61.60
2023-02-17T22:09:33.032Z,62.70
2023-02-17T22:11:59.580Z,62.90
2023-02-17T22:14:26.240Z,62.40
2023-02-17T22:16:52.946Z,62.80
2023-02-17T22:19:20.662Z,62.20
2023-02-17T22:21:47.652Z,62.50
2023-02-17T22:24:14.646Z,61.80
2023-02-17T22:26:41.628Z,62.90
2023-02-17T22:29:08.217Z,63.00
2023-02-17T22:31:35.012Z,61.70
2023-02-17T22:34:06.457Z,62.10
2023-02-17T22:36:34.568Z,62.40
2023-02-17T22:39:01.347Z,60.90
2023-02-17T22:41:28.086Z,60.90
2023-02-17T22:43:54.960Z,61.80
2023-02-17T22:46:22.820Z,60.70
2023-02-17T22:48:50.588Z,61.20
2023-02-17T22:51:18.608Z,60.70
2023-02-17T22:53:45.338Z,60.50
2023-02-17T22:56:12.170Z,61.20
2023-02-17T22:58:39.123Z,61.00
2023-02-17T23:01:10.184Z,60.70
2023-02-17T23:03:37.160Z,60.60
2023-02-17T23:06:05.297Z,60.40
2023-02-17T23:08:32.219Z,61.20
2023-02-17T23:10:58.860Z,62.30
2023-02-17T23:13:25.825Z,61.50
2023-02-17T23:15:52.377Z,60.80
2023-02-17T23:18:19.846Z,60.30
2023-02-17T23:20:47.719Z,60.40
2023-02-17T23:23:14.535Z,60.20
2023-02-17T23:25:42.619Z,60.60
2023-02-17T23:28:10.822Z,61.20
2023-02-17T23:30:37.497Z,61.50
2023-02-17T23:33:04.114Z,61.10
2023-02-17T23:35:30.686Z,60.50
2023-02-17T23:37:57.307Z,60.30
2023-02-17T23:40:23.900Z,60.00
2023-02-17T23:42:50.479Z,60.50
2023-02-17T23:45:17.182Z,60.20
2023-02-17T23:47:43.739Z,60.40
2023-02-17T23:50:10.535Z,60.30
2023-02-17T23:52:37.112Z,59.90
2023-02-17T23:55:05.937Z,60.80
2023-02-17T23:57:39.078Z,60.90
